createdAt,value
2022-07-27T00:01:41.221Z,95045.06
2022-07-27T00:04:21.044Z,95046.34
2022-07-27T00:06:48.103Z,95046.28
2022-07-27T00:09:15.401Z,95044.78
2022-07-27T00:11:42.233Z,95035.91
2022-07-27T00:14:08.907Z,95038.13
2022-07-27T00:16:35.762Z,95033.72
2022-07-27T00:19:02.474Z,95022.69
2022-07-27T00:21:29.103Z,95022.06
2022-07-27T00:23:56.621Z,95020.81
2022-07-27T00:26:23.309Z,95028.19
2022-07-27T00:28:50.672Z,95027.75
2022-07-27T00:31:18.001Z,95024.16
2022-07-27T00:33:44.730Z,95022.72
2022-07-27T00:36:11.641Z,95023.94
2022-07-27T00:38:38.563Z,95026.84
2022-07-27T00:41:05.513Z,95023.16
2022-07-27T00:43:32.251Z,95026.63
2022-07-27T00:45:58.883Z,95029.38
2022-07-27T00:48:26.571Z,95018.16
2022-07-27T00:50:55.498Z,95019.16
2022-07-27T00:53:22.277Z,95018.16
2022-07-27T00:55:49.115Z,95010.25
2022-07-27T00:58:16.962Z,95005.22
2022-07-27T01:00:44.530Z,95004.31
2022-07-27T01:03:11.288Z,95001.47
2022-07-27T01:05:43.282Z,95004.78
2022-07-27T01:08:13.896Z,95003.50
2022-07-27T01:10:41.596Z,95005.22
2022-07-27T01:13:12.495Z,95003.16
2022-07-27T01:15:40.875Z,94999.03
2022-07-27T01:18:26.987Z,94980.03
2022-07-27T01:20:54.261Z,94981.28
2022-07-27T01:23:20.912Z,94980.47
2022-07-27T01:25:47.764Z,94976.78
2022-07-27T01:28:14.354Z,94976.69
2022-07-27T01:30:40.969Z,94968.56
2022-07-27T01:33:09.678Z,94969.34
2022-07-27T01:35:38.597Z,94970.53
2022-07-27T01:38:06.987Z,94969.91
2022-07-27T01:40:36.638Z,94968.81
2022-07-27T01:43:05.133Z,94968.56
2022-07-27T01:45:31.843Z,94973.13
2022-07-27T01:47:58.455Z,94965.28
2022-07-27T01:50:25.126Z,94961.59
2022-07-27T01:52:51.719Z,94967.78
2022-07-27T01:55:18.319Z,94966.00
2022-07-27T01:57:44.998Z,94958.22
2022-07-27T02:00:12.496Z,94957.03
2022-07-27T02:02:39.853Z,94959.13
2022-07-27T02:05:07.755Z,94961.91
2022-07-27T02:07:34.438Z,94957.03
2022-07-27T02:10:01.052Z,94957.78
2022-07-27T02:12:36.668Z,94964.63
2022-07-27T02:15:06.279Z,94964.63
2022-07-27T02:17:33.643Z,94966.72
2022-07-27T02:20:02.451Z,94970.84
2022-07-27T02:22:29.108Z,94971.28
2022-07-27T02:24:55.907Z,94969.69
2022-07-27T02:27:22.744Z,94976.22
2022-07-27T02:29:49.475Z,94982.38
2022-07-27T02:32:16.118Z,94975.59
2022-07-27T02:34:42.983Z,94976.75
2022-07-27T02:37:09.663Z,94980.78
2022-07-27T02:39:36.282Z,94984.03
2022-07-27T02:42:03.765Z,94978.19
2022-07-27T02:44:31.224Z,94981.16
2022-07-27T02:47:01.471Z,94979.13
2022-07-27T02:49:28.175Z,94983.91
2022-07-27T02:51:55.017Z,94992.88
2022-07-27T02:54:24.594Z,94988.13
2022-07-27T02:56:56.102Z,94985.19
2022-07-27T02:59:23.399Z,94983.81
2022-07-27T03:01:50.435Z,94988.75
2022-07-27T03:04:18.230Z,94992.38
2022-07-27T03:06:45.072Z,94993.34
2022-07-27T03:09:12.049Z,94992.84
2022-07-27T03:11:39.105Z,94997.31
2022-07-27T03:14:05.849Z,94992.19
2022-07-27T03:16:32.627Z,94995.44
2022-07-27T03:18:59.286Z,94997.31
2022-07-27T03:21:26.151Z,94994.81
2022-07-27T03:23:52.833Z,94999.31
2022-07-27T03:26:19.490Z,94999.19
2022-07-27T03:28:46.120Z,95003.69
2022-07-27T03:31:12.905Z,94997.13
2022-07-27T03:33:39.655Z,94984.75
2022-07-27T03:36:07.281Z,94994.97
2022-07-27T03:38:34.362Z,94986.97
2022-07-27T03:41:00.990Z,94985.56
2022-07-27T03:43:27.616Z,94989.78
2022-07-27T03:45:54.299Z,94983.75
2022-07-27T03:48:20.967Z,94979.38
2022-07-27T03:50:47.597Z,94966.19
2022-07-27T03:53:14.755Z,94970.16
2022-07-27T03:55:41.395Z,94960.81
2022-07-27T03:58:08.003Z,94962.53
2022-07-27T04:00:34.660Z,94964.59
2022-07-27T04:03:01.518Z,94972.97
2022-07-27T04:05:29.557Z,94976.19
2022-07-27T04:07:56.801Z,94970.34
2022-07-27T04:10:29.257Z,94969.16
2022-07-27T04:12:58.647Z,94968.91
2022-07-27T04:15:26.344Z,94963.44
2022-07-27T04:17:57.669Z,94965.13
2022-07-27T04:20:25.168Z,94962.44
2022-07-27T04:22:51.826Z,94961.09
2022-07-27T04:25:18.517Z,94947.72
2022-07-27T04:27:45.206Z,94943.13
2022-07-27T04:30:12.190Z,94940.28
2022-07-27T04:32:39.203Z,94946.41
2022-07-27T04:35:06.968Z,94955.38
2022-07-27T04:37:35.047Z,94966.47
2022-07-27T04:40:01.953Z,94961.28
2022-07-27T04:42:29.852Z,94966.72
2022-07-27T04:44:56.874Z,94954.81
2022-07-27T04:47:23.603Z,94954.44
2022-07-27T04:49:50.234Z,94955.25
2022-07-27T04:52:17.621Z,94958.13
2022-07-27T04:54:45.440Z,94964.31
2022-07-27T04:57:12.147Z,94969.28
2022-07-27T04:59:38.821Z,94964.75
2022-07-27T05:02:05.544Z,94971.22
2022-07-27T05:04:32.197Z,94974.91
2022-07-27T05:06:58.933Z,94962.34
2022-07-27T05:09:25.522Z,94962.97
2022-07-27T05:11:52.402Z,94967.81
2022-07-27T05:14:21.298Z,94965.66
2022-07-27T05:16:48.924Z,94968.91
2022-07-27T05:19:15.991Z,94972.66
2022-07-27T05:21:42.975Z,94983.34
2022-07-27T05:24:10.163Z,94982.78
2022-07-27T05:26:37.386Z,94989.81
2022-07-27T05:29:04.488Z,94992.53
2022-07-27T05:31:31.340Z,94995.50
2022-07-27T05:33:58.766Z,94992.84
2022-07-27T05:36:25.914Z,94986.13
2022-07-27T05:38:52.658Z,94989.31
2022-07-27T05:41:24.566Z,94987.56
2022-07-27T05:43:51.600Z,94994.03
2022-07-27T05:46:18.338Z,95001.91
2022-07-27T05:48:45.050Z,95000.56
2022-07-27T05:51:11.867Z,94996.56
2022-07-27T05:53:38.575Z,95000.44
2022-07-27T05:56:05.745Z,95004.66
2022-07-27T05:58:32.360Z,94997.63
2022-07-27T06:00:59.623Z,94998.25
2022-07-27T06:03:26.980Z,95004.34
2022-07-27T06:06:13.585Z,94997.53
2022-07-27T06:08:40.231Z,94997.91
2022-07-27T06:11:06.883Z,94998.81
2022-07-27T06:13:36.488Z,94994.41
2022-07-27T06:16:04.285Z,94998.03
2022-07-27T06:18:31.080Z,94998.84
2022-07-27T06:20:59.230Z,94995.22
2022-07-27T06:23:26.115Z,94998.25
2022-07-27T06:25:52.850Z,95004.28
2022-07-27T06:28:19.510Z,95005.91
2022-07-27T06:30:47.486Z,95006.75
2022-07-27T06:33:14.630Z,95002.16
2022-07-27T06:35:41.788Z,94999.94
2022-07-27T06:38:09.141Z,95002.97
2022-07-27T06:40:36.201Z,95006.81
2022-07-27T06:43:02.891Z,94996.59
2022-07-27T06:45:29.665Z,95008.63
2022-07-27T06:47:56.315Z,95005.75
2022-07-27T06:50:23.544Z,95007.41
2022-07-27T06:52:50.197Z,95009.63
2022-07-27T06:55:17.020Z,95009.81
2022-07-27T06:57:43.993Z,95005.38
2022-07-27T07:00:11.817Z,95004.19
2022-07-27T07:02:39.679Z,95011.81
2022-07-27T07:05:06.746Z,95005.56
2022-07-27T07:07:33.419Z,95002.56
2022-07-27T07:10:00.093Z,95009.00
2022-07-27T07:12:28.371Z,95005.94
2022-07-27T07:14:54.991Z,94999.47
2022-07-27T07:17:21.595Z,95004.47
2022-07-27T07:19:48.215Z,95011.47
2022-07-27T07:22:15.114Z,95005.19
2022-07-27T07:24:42.092Z,95003.09
2022-07-27T07:27:08.723Z,95000.25
2022-07-27T07:29:35.314Z,95001.81
2022-07-27T07:32:02.004Z,94999.88
2022-07-27T07:34:29.554Z,95000.09
2022-07-27T07:36:56.270Z,94993.72
2022-07-27T07:39:25.578Z,94996.13
2022-07-27T07:41:55.820Z,94995.75
2022-07-27T07:44:22.450Z,94995.66
2022-07-27T07:46:49.226Z,95003.00
2022-07-27T07:49:16.687Z,94994.94
2022-07-27T07:51:43.830Z,94995.91
2022-07-27T07:54:10.779Z,94994.56
2022-07-27T07:56:37.765Z,94992.25
2022-07-27T07:59:05.015Z,94994.75
2022-07-27T08:01:31.806Z,94994.94
2022-07-27T08:03:58.498Z,95003.13
2022-07-27T08:06:25.288Z,95001.72
2022-07-27T08:08:51.943Z,95001.06
2022-07-27T08:11:18.626Z,94997.47
2022-07-27T08:13:45.665Z,94995.56
2022-07-27T08:16:12.460Z,95008.00
2022-07-27T08:18:39.206Z,95009.19
2022-07-27T08:21:05.818Z,95008.41
2022-07-27T08:23:32.750Z,95002.59
2022-07-27T08:26:04.148Z,95005.06
2022-07-27T08:28:37.234Z,95010.13
2022-07-27T08:31:14.577Z,95007.50
2022-07-27T08:33:42.090Z,95011.50
2022-07-27T08:36:08.678Z,95006.06
2022-07-27T08:38:35.276Z,95004.38
2022-07-27T08:41:03.676Z,95000.03
2022-07-27T08:43:31.944Z,95008.38
2022-07-27T08:46:01.160Z,95006.13
2022-07-27T08:48:31.275Z,95008.50
2022-07-27T08:50:58.299Z,95011.13
2022-07-27T08:53:25.654Z,95001.53
2022-07-27T08:55:52.557Z,95004.75
2022-07-27T08:58:19.317Z,95007.69
2022-07-27T09:00:49.931Z,95008.75
2022-07-27T09:03:20.526Z,95008.56
2022-07-27T09:05:51.078Z,95012.78
2022-07-27T09:08:28.845Z,95006.78
2022-07-27T09:10:59.267Z,95013.97
2022-07-27T09:13:30.399Z,95014.66
2022-07-27T09:16:21.714Z,95012.09
2022-07-27T09:18:58.466Z,95010.75
2022-07-27T09:21:25.949Z,95010.50
2022-07-27T09:23:59.715Z,95010.66
2022-07-27T09:26:32.599Z,95013.25
2022-07-27T09:29:03.742Z,95017.78
2022-07-27T09:31:31.317Z,95016.69
2022-07-27T09:34:02.499Z,95014.69
2022-07-27T09:36:31.145Z,95008.22
2022-07-27T09:39:05.503Z,95002.66
2022-07-27T09:41:47.648Z,95011.75
2022-07-27T09:44:33.055Z,95015.13
2022-07-27T09:47:19.731Z,95017.09
2022-07-27T09:49:46.699Z,95021.81
2022-07-27T09:52:23.632Z,95013.03
2022-07-27T09:54:50.942Z,95002.88
2022-07-27T09:57:18.562Z,95010.09
2022-07-27T09:59:46.189Z,95008.88
2022-07-27T10:02:14.541Z,95008.25
2022-07-27T10:04:41.851Z,95004.53
2022-07-27T10:07:13.203Z,95008.28
2022-07-27T10:09:40.758Z,95006.22
2022-07-27T10:12:08.047Z,95007.41
2022-07-27T10:14:35.531Z,95012.25
2022-07-27T10:17:03.007Z,95015.91
2022-07-27T10:19:41.323Z,95005.84
2022-07-27T10:22:07.961Z,95014.84
2022-07-27T10:24:36.927Z,95019.97
2022-07-27T10:27:31.610Z,95010.97
2022-07-27T10:30:00.805Z,95016.84
2022-07-27T10:32:33.203Z,95006.06
2022-07-27T10:35:01.527Z,95007.41
2022-07-27T10:37:33.331Z,95012.84
2022-07-27T10:40:23.587Z,95014.44
2022-07-27T10:43:15.086Z,95014.41
2022-07-27T10:45:50.679Z,95018.16
2022-07-27T10:48:46.019Z,95017.78
2022-07-27T10:51:16.892Z,95015.50
2022-07-27T10:54:10.954Z,95010.13
2022-07-27T10:56:45.733Z,95003.41
2022-07-27T10:59:12.475Z,95006.38
2022-07-27T11:01:57.334Z,95008.41
2022-07-27T11:04:24.688Z,95012.47
2022-07-27T11:07:30.063Z,95008.88
2022-07-27T11:10:04.324Z,95010.19
2022-07-27T11:12:31.716Z,95014.09
2022-07-27T11:14:59.035Z,95022.34
2022-07-27T11:20:14.727Z,95013.41
2022-07-27T11:25:28.525Z,95014.78
2022-07-27T11:27:55.194Z,95017.59
2022-07-27T11:30:27.349Z,95017.47
2022-07-27T11:32:55.228Z,95012.13
2022-07-27T11:35:22.178Z,95017.31
2022-07-27T11:38:06.110Z,95011.88
2022-07-27T11:40:56.971Z,95002.94
2022-07-27T11:43:33.653Z,95000.16
2022-07-27T11:46:19.737Z,95003.56
2022-07-27T11:49:09.629Z,94998.69
2022-07-27T11:51:39.551Z,94994.94
2022-07-27T11:54:08.821Z,94994.94
2022-07-27T11:56:37.681Z,94997.25
2022-07-27T11:59:19.221Z,94993.91
2022-07-27T12:01:55.375Z,94985.38
2022-07-27T12:04:24.628Z,94982.50
2022-07-27T12:07:03.288Z,94984.34
2022-07-27T12:09:38.344Z,94985.06
2022-07-27T12:12:21.838Z,94987.25
2022-07-27T12:14:54.379Z,94994.63
2022-07-27T12:17:31.673Z,94991.25
2022-07-27T12:20:05.807Z,94987.25
2022-07-27T12:22:51.224Z,94985.94
2022-07-27T12:25:17.788Z,94994.34
2022-07-27T12:27:56.610Z,94990.31
2022-07-27T12:30:42.470Z,94984.84
2022-07-27T12:33:37.942Z,94999.56
2022-07-27T12:36:09.020Z,94988.28
2022-07-27T12:38:43.658Z,94988.28
2022-07-27T12:41:10.789Z,94989.19
2022-07-27T12:43:37.978Z,94983.47
2022-07-27T12:46:12.944Z,94990.88
2022-07-27T12:48:41.919Z,94993.69
2022-07-27T12:51:10.151Z,94993.50
2022-07-27T12:53:38.900Z,94982.56
2022-07-27T12:56:10.158Z,94982.88
2022-07-27T12:58:37.694Z,94978.88
2022-07-27T13:01:11.515Z,94985.53
2022-07-27T13:03:38.336Z,94989.31
2022-07-27T13:06:10.659Z,94989.63
2022-07-27T13:08:39.565Z,94986.34
2022-07-27T13:11:06.229Z,94977.81
2022-07-27T13:13:32.922Z,94978.59
2022-07-27T13:15:59.555Z,94980.81
2022-07-27T13:18:26.449Z,94985.69
2022-07-27T13:20:53.161Z,94979.69
2022-07-27T13:23:20.574Z,94983.75
2022-07-27T13:25:47.296Z,94982.69
2022-07-27T13:28:13.960Z,94979.00
2022-07-27T13:30:40.745Z,94982.78
2022-07-27T13:33:08.049Z,94982.16
2022-07-27T13:35:35.275Z,94982.41
2022-07-27T13:38:02.166Z,94977.97
2022-07-27T13:40:28.911Z,94983.47
2022-07-27T13:42:55.511Z,94983.81
2022-07-27T13:45:22.368Z,94981.69
2022-07-27T13:47:49.006Z,94987.38
2022-07-27T13:50:19.259Z,94984.50
2022-07-27T13:52:49.955Z,94977.34
2022-07-27T13:55:17.311Z,94977.44
2022-07-27T13:57:44.564Z,94975.56
2022-07-27T14:00:12.130Z,94970.94
2022-07-27T14:02:39.733Z,94974.66
2022-07-27T14:05:07.039Z,94972.75
2022-07-27T14:07:37.557Z,94975.19
2022-07-27T14:10:23.120Z,94973.03
2022-07-27T14:12:49.791Z,94970.28
2022-07-27T14:15:16.705Z,94970.69
2022-07-27T14:17:43.475Z,94968.50
2022-07-27T14:20:10.931Z,94968.03
2022-07-27T14:22:37.544Z,94964.06
2022-07-27T14:25:04.681Z,94968.66
2022-07-27T14:27:36.609Z,94963.03
2022-07-27T14:30:06.852Z,94967.38
2022-07-27T14:32:34.575Z,94968.56
2022-07-27T14:35:01.508Z,94959.91
2022-07-27T14:37:28.187Z,94962.50
2022-07-27T14:39:54.764Z,94966.22
2022-07-27T14:42:23.756Z,94969.19
2022-07-27T14:44:50.418Z,94961.47
2022-07-27T14:47:17.330Z,94964.06
2022-07-27T14:49:44.083Z,94959.19
2022-07-27T14:52:13.568Z,94958.22
2022-07-27T14:54:45.196Z,94954.91
2022-07-27T14:57:12.488Z,94956.91
2022-07-27T14:59:39.369Z,94953.34
2022-07-27T15:02:06.546Z,94950.94
2022-07-27T15:04:33.727Z,94953.56
2022-07-27T15:07:00.919Z,94947.06
2022-07-27T15:09:30.418Z,94945.72
2022-07-27T15:11:58.307Z,94953.56
2022-07-27T15:14:25.187Z,94947.66
2022-07-27T15:16:52.703Z,94954.38
2022-07-27T15:19:19.612Z,94958.00
2022-07-27T15:21:47.189Z,94950.09
2022-07-27T15:24:14.128Z,94945.97
2022-07-27T15:26:40.980Z,94940.50
2022-07-27T15:29:10.025Z,94936.94
2022-07-27T15:31:43.295Z,94950.53
2022-07-27T15:34:10.116Z,94954.28
2022-07-27T15:36:43.614Z,94951.91
2022-07-27T15:39:13.903Z,94950.00
2022-07-27T15:41:40.970Z,94947.75
2022-07-27T15:44:08.270Z,94946.50
2022-07-27T15:46:35.066Z,94949.41
2022-07-27T15:49:01.889Z,94952.34
2022-07-27T15:51:28.681Z,94944.91
2022-07-27T15:53:56.894Z,94945.41
2022-07-27T15:56:24.278Z,94945.72
2022-07-27T15:58:50.872Z,94937.09
2022-07-27T16:01:18.038Z,94938.84
2022-07-27T16:03:48.777Z,94933.47
2022-07-27T16:06:15.987Z,94936.06
2022-07-27T16:08:44.143Z,94937.69
2022-07-27T16:11:10.971Z,94933.13
2022-07-27T16:13:37.612Z,94928.44
2022-07-27T16:16:25.090Z,94935.75
2022-07-27T16:18:53.533Z,94935.63
2022-07-27T16:21:22.521Z,94940.69
2022-07-27T16:23:51.019Z,94922.16
2022-07-27T16:26:17.891Z,94925.66
2022-07-27T16:28:47.204Z,94917.09
2022-07-27T16:31:16.063Z,94922.69
2022-07-27T16:33:44.483Z,94923.75
2022-07-27T16:36:12.448Z,94924.03
2022-07-27T16:38:49.832Z,94927.41
2022-07-27T16:41:19.013Z,94924.28
2022-07-27T16:43:46.105Z,94921.91
2022-07-27T16:46:13.314Z,94926.88
2022-07-27T16:48:41.695Z,94928.91
2022-07-27T16:51:13.985Z,94931.34
2022-07-27T16:53:42.540Z,94928.69
2022-07-27T16:56:10.008Z,94926.88
2022-07-27T16:58:38.012Z,94927.19
2022-07-27T17:01:05.595Z,94927.34
2022-07-27T17:03:32.382Z,94921.63
2022-07-27T17:06:03.632Z,94923.66
2022-07-27T17:08:32.544Z,94921.94
2022-07-27T17:11:00.495Z,94920.94
2022-07-27T17:13:33.757Z,94922.69
2022-07-27T17:16:05.448Z,94923.69
2022-07-27T17:18:38.982Z,94927.97
2022-07-27T17:21:07.472Z,94938.13
2022-07-27T17:23:37.957Z,94932.28
2022-07-27T17:26:06.621Z,94926.53
2022-07-27T17:28:36.538Z,94931.72
2022-07-27T17:31:04.097Z,94932.16
2022-07-27T17:33:31.326Z,94935.19
2022-07-27T17:35:58.646Z,94933.25
2022-07-27T17:38:25.708Z,94935.72
2022-07-27T17:40:52.474Z,94938.22
2022-07-27T17:43:19.117Z,94938.22
2022-07-27T17:45:45.835Z,94944.44
2022-07-27T17:48:12.512Z,94937.63
2022-07-27T17:50:39.117Z,94941.28
2022-07-27T17:53:05.865Z,94942.06
2022-07-27T17:55:34.689Z,94939.63
2022-07-27T17:58:01.320Z,94945.13
2022-07-27T18:00:28.032Z,94946.75
2022-07-27T18:02:55.061Z,94945.53
2022-07-27T18:05:21.793Z,94953.47
2022-07-27T18:07:51.789Z,94951.31
2022-07-27T18:10:18.445Z,94956.38
2022-07-27T18:12:45.074Z,94948.81
2022-07-27T18:15:30.388Z,94952.84
2022-07-27T18:17:57.028Z,94954.00
2022-07-27T18:20:23.690Z,94953.09
2022-07-27T18:22:50.382Z,94955.47
2022-07-27T18:25:17.033Z,94951.72
2022-07-27T18:27:44.882Z,94946.84
2022-07-27T18:30:12.314Z,94949.41
2022-07-27T18:32:39.434Z,94946.16
2022-07-27T18:35:06.575Z,94941.00
2022-07-27T18:37:33.242Z,94955.63
2022-07-27T18:39:59.945Z,94951.84
2022-07-27T18:42:26.610Z,94958.84
2022-07-27T18:44:54.044Z,94953.03
2022-07-27T18:47:20.757Z,94960.16
2022-07-27T18:49:47.388Z,94960.69
2022-07-27T18:52:14.116Z,94972.91
2022-07-27T18:54:40.875Z,94971.13
2022-07-27T18:57:07.500Z,94978.59
2022-07-27T18:59:40.084Z,94977.78
2022-07-27T19:02:08.186Z,94988.03
2022-07-27T19:04:35.093Z,94986.00
2022-07-27T19:07:03.488Z,94994.03
2022-07-27T19:09:33.598Z,94995.88
2022-07-27T19:12:01.837Z,95003.22
2022-07-27T19:14:30.177Z,95002.47
2022-07-27T19:16:56.806Z,95006.97
2022-07-27T19:19:23.815Z,95005.78
2022-07-27T19:21:50.739Z,95009.22
2022-07-27T19:24:18.110Z,95013.84
2022-07-27T19:26:44.716Z,95016.84
2022-07-27T19:29:13.309Z,95018.88
2022-07-27T19:31:40.414Z,95023.53
2022-07-27T19:34:07.130Z,95022.91
2022-07-27T19:36:33.771Z,95023.53
2022-07-27T19:39:05.553Z,95022.53
2022-07-27T19:41:34.660Z,95024.16
2022-07-27T19:44:01.351Z,95025.16
2022-07-27T19:46:28.071Z,95031.56
2022-07-27T19:48:54.975Z,95033.22
2022-07-27T19:51:21.821Z,95030.41
2022-07-27T19:53:49.051Z,95029.97
2022-07-27T19:56:15.969Z,95029.38
2022-07-27T19:58:42.752Z,95038.22
2022-07-27T20:01:10.415Z,95036.22
2022-07-27T20:03:53.318Z,95040.03
2022-07-27T20:06:25.933Z,95035.81
2022-07-27T20:08:56.046Z,95038.22
2022-07-27T20:11:22.976Z,95042.84
2022-07-27T20:13:49.597Z,95046.47
2022-07-27T20:16:17.730Z,95046.28
2022-07-27T20:18:44.431Z,95044.47
2022-07-27T20:21:23.179Z,95049.88
2022-07-27T20:23:52.136Z,95048.28
2022-07-27T20:26:19.742Z,95048.66
2022-07-27T20:28:47.224Z,95049.47
2022-07-27T20:31:13.967Z,95056.25
2022-07-27T20:33:40.695Z,95055.63
2022-07-27T20:36:07.515Z,95055.84
2022-07-27T20:38:34.109Z,95064.88
2022-07-27T20:41:00.878Z,95068.31
2022-07-27T20:43:27.782Z,95057.41
2022-07-27T20:45:54.846Z,95066.69
2022-07-27T20:48:21.528Z,95062.84
2022-07-27T20:50:48.129Z,95067.03
2022-07-27T20:53:15.072Z,95069.66
2022-07-27T20:55:42.744Z,95068.84
2022-07-27T20:58:09.783Z,95069.66
2022-07-27T21:00:36.400Z,95070.28
2022-07-27T21:03:03.335Z,95072.69
2022-07-27T21:05:29.942Z,95068.06
2022-07-27T21:07:56.867Z,95068.03
2022-07-27T21:10:24.623Z,95069.47
2022-07-27T21:12:51.720Z,95075.50
2022-07-27T21:15:18.437Z,95068.88
2022-07-27T21:17:45.105Z,95073.28
2022-07-27T21:20:13.552Z,95074.09
2022-07-27T21:22:40.851Z,95070.28
2022-07-27T21:25:07.738Z,95072.69
2022-07-27T21:27:34.372Z,95083.53
2022-07-27T21:30:01.286Z,95078.53
2022-07-27T21:32:28.945Z,95076.06
2022-07-27T21:34:55.556Z,95084.94
2022-07-27T21:37:22.172Z,95082.88
2022-07-27T21:39:48.796Z,95074.03
2022-07-27T21:42:15.413Z,95075.22
2022-07-27T21:44:42.118Z,95080.28
2022-07-27T21:47:13.479Z,95069.16
2022-07-27T21:49:40.966Z,95073.75
2022-07-27T21:52:07.576Z,95076.19
2022-07-27T21:54:34.202Z,95076.13
2022-07-27T21:57:00.802Z,95066.47
2022-07-27T21:59:27.429Z,95067.28
2022-07-27T22:01:54.083Z,95066.25
2022-07-27T22:04:21.309Z,95072.22
2022-07-27T22:06:47.973Z,95061.13
2022-07-27T22:09:14.555Z,95058.84
2022-07-27T22:11:41.361Z,95063.47
2022-07-27T22:14:08.030Z,95069.84
2022-07-27T22:16:34.731Z,95060.81
2022-07-27T22:19:01.436Z,95067.97
2022-07-27T22:21:28.866Z,95069.56
2022-07-27T22:23:55.475Z,95076.75
2022-07-27T22:26:22.634Z,95077.50
2022-07-27T22:28:49.286Z,95073.97
2022-07-27T22:31:22.006Z,95076.75
2022-07-27T22:33:50.272Z,95079.88
2022-07-27T22:36:16.948Z,95071.81
2022-07-27T22:38:43.609Z,95078.19
2022-07-27T22:41:10.400Z,95080.91
2022-07-27T22:43:37.107Z,95076.41
2022-07-27T22:46:04.857Z,95072.75
2022-07-27T22:48:31.755Z,95069.81
2022-07-27T22:50:58.638Z,95068.41
2022-07-27T22:53:25.504Z,95071.94
2022-07-27T22:55:52.231Z,95065.69
2022-07-27T22:58:18.885Z,95069.00
2022-07-27T23:00:45.501Z,95062.00
2022-07-27T23:03:12.186Z,95061.06
2022-07-27T23:05:38.911Z,95063.31
2022-07-27T23:08:05.966Z,95055.13
2022-07-27T23:10:47.693Z,95061.16
2022-07-27T23:13:18.933Z,95061.97
2022-07-27T23:15:46.415Z,95058.09
2022-07-27T23:18:13.676Z,95055.84
2022-07-27T23:20:41.207Z,95054.16
2022-07-27T23:23:15.545Z,95052.13
2022-07-27T23:25:48.200Z,95049.53
2022-07-27T23:28:16.334Z,95051.13
2022-07-27T23:30:43.481Z,95053.31
2022-07-27T23:33:10.424Z,95050.66
2022-07-27T23:35:37.025Z,95043.47
2022-07-27T23:38:03.833Z,95043.50
2022-07-27T23:40:30.716Z,95049.88
2022-07-27T23:42:57.321Z,95047.66
2022-07-27T23:45:23.973Z,95044.81
2022-07-27T23:47:50.584Z,95044.00
2022-07-27T23:50:17.253Z,95041.94
2022-07-27T23:52:43.914Z,95046.69
2022-07-27T23:55:10.672Z,95040.25
2022-07-27T23:57:37.288Z,95048.00
